Time;durP1;ratioP1;P1;durP2;ratioP2;P2;SDS_P1;SDS_P2;PMS_P1;PMS_P2;Temp;Humidity;BMP_temperature;BMP_pressure;BME280_temperature;BME280_humidity;BME280_pressure;Samples;Min_cycle;Max_cycle;Signal;HPM_P1;HPM_P2
2022/01/07 00:00:17;;;;;;;10.60;4.17;;;3.80;99.90;;;;;;5051300;28;20406;-84
2022/01/07 00:02:45;;;;;;;7.63;4.43;;;3.80;99.90;;;;;;5051214;28;20446;-83
2022/01/07 00:05:11;;;;;;;7.27;5.60;;;3.80;99.90;;;;;;5051022;28;20414;-84
2022/01/07 00:07:38;;;;;;;11.63;4.33;;;3.80;99.90;;;;;;5051055;28;20437;-84
2022/01/07 00:10:05;;;;;;;15.10;5.40;;;3.80;99.90;;;;;;5051103;28;20465;-84
2022/01/07 00:12:31;;;;;;;9.90;4.53;;;3.80;99.90;;;;;;5050923;28;20471;-84
2022/01/07 00:14:57;;;;;;;8.83;4.33;;;3.80;99.90;;;;;;5050801;28;20410;-84
2022/01/07 00:17:22;;;;;;;8.23;3.90;;;3.70;99.90;;;;;;5051019;28;20176;-84
2022/01/07 00:19:48;;;;;;;9.90;4.80;;;3.70;99.90;;;;;;5050830;28;20204;-84
2022/01/07 00:22:14;;;;;;;9.70;4.60;;;3.70;99.90;;;;;;5050865;28;20203;-84
2022/01/07 00:24:40;;;;;;;7.90;3.80;;;3.70;99.90;;;;;;5050830;28;20279;-84
2022/01/07 00:27:07;;;;;;;7.87;4.30;;;3.60;99.90;;;;;;5050835;28;20459;-84
2022/01/07 00:29:32;;;;;;;11.30;5.30;;;3.60;99.90;;;;;;5050902;28;20183;-84
2022/01/07 00:31:58;;;;;;;6.90;4.43;;;3.60;99.90;;;;;;5050580;28;20907;-84
2022/01/07 00:34:24;;;;;;;11.47;4.80;;;3.60;99.90;;;;;;5050874;28;20410;-83
2022/01/07 00:36:50;;;;;;;6.27;4.90;;;3.60;99.90;;;;;;5050513;28;20266;-84
2022/01/07 00:39:16;;;;;;;9.13;4.27;;;3.60;99.90;;;;;;5050780;28;20457;-84
2022/01/07 00:41:42;;;;;;;9.37;5.00;;;3.60;99.90;;;;;;5050561;28;20199;-84
2022/01/07 00:44:07;;;;;;;15.90;4.90;;;3.60;99.90;;;;;;5050732;28;20418;-84
2022/01/07 00:46:33;;;;;;;8.70;4.17;;;3.50;99.90;;;;;;5057907;28;20189;-84
2022/01/07 00:48:59;;;;;;;9.00;4.13;;;3.50;99.90;;;;;;5059617;28;20180;-84
2022/01/07 00:51:25;;;;;;;8.90;4.27;;;3.50;99.90;;;;;;5059321;28;20305;-84
2022/01/07 00:53:51;;;;;;;8.33;4.70;;;3.60;99.90;;;;;;5058666;28;20560;-84
2022/01/07 00:56:17;;;;;;;10.60;4.83;;;3.60;99.90;;;;;;5058263;28;20180;-85
2022/01/07 00:58:42;;;;;;;6.27;3.70;;;3.60;99.90;;;;;;5059131;28;20262;-84
2022/01/07 01:01:08;;;;;;;12.17;5.43;;;3.60;99.90;;;;;;5061672;28;20908;-84
2022/01/07 01:03:34;;;;;;;11.10;5.00;;;3.60;99.90;;;;;;5061637;28;20179;-84
2022/01/07 01:06:00;;;;;;;8.83;4.73;;;3.70;99.90;;;;;;5060839;28;20319;-84
2022/01/07 01:08:26;;;;;;;10.97;5.10;;;3.70;99.90;;;;;;5060708;28;20658;-84
2022/01/07 01:10:52;;;;;;;13.83;5.07;;;3.70;99.90;;;;;;5060524;28;20179;-84
2022/01/07 01:13:18;;;;;;;12.70;5.00;;;3.70;99.90;;;;;;5059833;28;20469;-84
2022/01/07 01:15:44;;;;;;;12.47;4.57;;;3.80;99.90;;;;;;5059660;28;20414;-83
2022/01/07 01:18:10;;;;;;;7.87;4.40;;;3.80;99.90;;;;;;5059406;28;20411;-84
2022/01/07 01:20:36;;;;;;;6.53;4.30;;;3.80;99.90;;;;;;5059524;28;20472;-84
2022/01/07 01:23:02;;;;;;;8.50;4.47;;;3.80;99.90;;;;;;5042668;28;20200;-84
2022/01/07 01:25:28;;;;;;;6.40;3.97;;;3.80;99.90;;;;;;5058066;28;20855;-84
2022/01/07 01:27:54;;;;;;;9.70;4.60;;;3.80;99.90;;;;;;5058005;28;20199;-84
2022/01/07 01:30:26;;;;;;;7.83;5.23;;;3.90;99.90;;;;;;5057613;28;20427;-84
2022/01/07 01:32:53;;;;;;;14.87;5.93;;;3.90;99.90;;;;;;5057989;28;20466;-84
2022/01/07 01:35:19;;;;;;;11.87;4.30;;;3.90;99.90;;;;;;5057428;28;20416;-84
2022/01/07 01:37:45;;;;;;;9.07;5.17;;;4.00;99.90;;;;;;5057615;28;20827;-84
2022/01/07 01:40:12;;;;;;;9.93;4.40;;;4.00;99.90;;;;;;5056991;28;20442;-83
2022/01/07 01:42:38;;;;;;;9.23;4.83;;;4.00;99.90;;;;;;5057096;28;20453;-84
2022/01/07 01:45:07;;;;;;;8.33;5.10;;;4.00;99.90;;;;;;5056933;28;20414;-84
2022/01/07 01:47:36;;;;;;;9.10;4.80;;;4.00;99.90;;;;;;5039659;28;20422;-83
2022/01/07 01:50:04;;;;;;;11.57;4.70;;;4.00;99.90;;;;;;5056367;28;20446;-84
2022/01/07 01:52:30;;;;;;;11.33;4.53;;;3.90;99.90;;;;;;5055996;28;20523;-84
2022/01/07 01:54:56;;;;;;;6.60;4.30;;;4.00;99.90;;;;;;5056019;28;20913;-83
2022/01/07 01:57:21;;;;;;;11.93;4.50;;;4.00;99.90;;;;;;5055370;28;20647;-83
2022/01/07 01:59:47;;;;;;;7.73;4.20;;;4.00;99.90;;;;;;5055202;28;20418;-84
2022/01/07 02:02:13;;;;;;;7.47;4.30;;;4.00;99.90;;;;;;5054964;28;20493;-84
2022/01/07 02:04:40;;;;;;;9.70;4.20;;;4.00;99.90;;;;;;5054969;28;20422;-84
2022/01/07 02:07:11;;;;;;;9.57;3.70;;;4.00;99.90;;;;;;5054910;28;20236;-84
2022/01/07 02:09:37;;;;;;;7.50;4.00;;;4.10;99.90;;;;;;5054242;28;20995;-84
2022/01/07 02:12:08;;;;;;;6.00;4.40;;;4.10;99.90;;;;;;5054116;28;20533;-84
2022/01/07 02:14:35;;;;;;;8.90;5.10;;;4.00;99.90;;;;;;5054846;28;20423;-84
2022/01/07 02:17:10;;;;;;;7.13;5.10;;;4.10;99.90;;;;;;5053937;28;20418;-84
2022/01/07 02:19:37;;;;;;;6.50;4.30;;;4.10;99.90;;;;;;5053876;28;20410;-84
2022/01/07 02:22:04;;;;;;;9.37;4.37;;;4.20;99.90;;;;;;5054346;28;20821;-84
2022/01/07 02:24:31;;;;;;;7.40;4.13;;;4.20;99.90;;;;;;5053471;28;20422;-84
2022/01/07 02:26:57;;;;;;;6.87;4.27;;;4.20;99.90;;;;;;5053867;28;20438;-84
2022/01/07 02:29:23;;;;;;;9.73;5.00;;;4.10;99.90;;;;;;5053593;28;20423;-84
2022/01/07 02:31:49;;;;;;;12.03;5.20;;;4.10;99.90;;;;;;5053823;28;20543;-84
2022/01/07 02:34:15;;;;;;;9.93;4.83;;;4.10;99.90;;;;;;5053326;28;20423;-83
2022/01/07 02:36:42;;;;;;;10.20;5.00;;;4.00;99.90;;;;;;5053092;28;20513;-84
2022/01/07 02:39:08;;;;;;;8.53;4.73;;;4.00;99.90;;;;;;5053417;28;20441;-83
2022/01/07 02:41:34;;;;;;;8.93;4.93;;;3.90;99.90;;;;;;5053318;28;20442;-84
2022/01/07 02:43:59;;;;;;;9.53;4.47;;;3.90;99.90;;;;;;5052850;28;20784;-84
2022/01/07 02:46:25;;;;;;;9.77;5.53;;;3.90;99.90;;;;;;5052821;28;20184;-83
2022/01/07 02:48:51;;;;;;;8.10;4.90;;;3.80;99.90;;;;;;5052925;28;20678;-83
2022/01/07 02:51:17;;;;;;;6.53;4.20;;;3.80;99.90;;;;;;5064237;22;20228;-79
2022/01/07 02:53:43;;;;;;;9.87;5.40;;;3.70;99.90;;;;;;5037332;28;20172;-78
2022/01/07 02:56:11;;;;;;;9.50;4.20;;;3.70;99.90;;;;;;5036646;28;20666;-79
2022/01/07 02:58:37;;;;;;;7.33;4.50;;;3.70;99.90;;;;;;5036893;28;20183;-77
2022/01/07 03:01:03;;;;;;;9.70;4.90;;;3.60;99.90;;;;;;5025802;28;20500;-78
2022/01/07 03:03:28;;;;;;;6.30;4.60;;;3.50;99.90;;;;;;5036436;28;20474;-79
2022/01/07 03:05:54;;;;;;;7.63;4.97;;;3.50;99.90;;;;;;5036815;28;20177;-79
2022/01/07 03:08:20;;;;;;;9.43;4.70;;;3.50;99.90;;;;;;5034222;28;20187;-78
2022/01/07 03:10:46;;;;;;;9.77;4.63;;;3.50;99.90;;;;;;5032916;28;20174;-79
2022/01/07 03:13:12;;;;;;;7.90;4.40;;;3.50;99.90;;;;;;5068813;28;20196;-79
2022/01/07 03:15:38;;;;;;;8.50;4.53;;;3.50;99.90;;;;;;5056338;28;20421;-79
2022/01/07 03:18:08;;;;;;;6.50;4.67;;;3.40;99.90;;;;;;5055407;28;20642;-78
2022/01/07 03:20:38;;;;;;;8.00;4.27;;;3.40;99.90;;;;;;5055265;28;20426;-79
2022/01/07 03:23:06;;;;;;;9.63;4.80;;;3.40;99.90;;;;;;5043989;28;20455;-77
2022/01/07 03:25:32;;;;;;;11.23;4.93;;;3.40;99.90;;;;;;5036574;28;20420;-78
2022/01/07 03:27:58;;;;;;;6.33;3.93;;;3.40;99.90;;;;;;5035940;28;20430;-78
2022/01/07 03:30:24;;;;;;;6.17;3.30;;;3.30;99.90;;;;;;5035817;28;20198;-79
2022/01/07 03:32:49;;;;;;;10.53;4.73;;;3.40;99.90;;;;;;5035272;28;20219;-78
2022/01/07 03:35:17;;;;;;;6.73;4.70;;;3.30;99.90;;;;;;5035170;28;20745;-79
2022/01/07 03:37:43;;;;;;;8.20;4.40;;;3.30;99.90;;;;;;5035695;28;20572;-78
2022/01/07 03:40:11;;;;;;;6.90;3.77;;;3.30;99.90;;;;;;5035671;28;20853;-78
2022/01/07 03:42:37;;;;;;;13.60;4.30;;;3.30;99.90;;;;;;5036164;28;21072;-78
2022/01/07 03:45:04;;;;;;;9.90;6.33;;;3.20;99.90;;;;;;5035735;28;20459;-78
2022/01/07 03:47:30;;;;;;;10.23;4.30;;;3.30;99.90;;;;;;5035096;28;20179;-78
2022/01/07 03:49:56;;;;;;;11.23;4.50;;;3.30;99.90;;;;;;5035476;28;20423;-79
2022/01/07 03:52:21;;;;;;;9.27;4.40;;;3.20;99.90;;;;;;5035256;28;20818;-78
2022/01/07 03:54:50;;;;;;;6.23;4.00;;;3.30;99.90;;;;;;5035297;28;20642;-78
2022/01/07 03:57:16;;;;;;;6.27;4.37;;;3.30;99.90;;;;;;5034495;28;20228;-78
2022/01/07 03:59:41;;;;;;;8.30;4.20;;;3.30;99.90;;;;;;5035340;28;20506;-78
2022/01/07 04:02:10;;;;;;;6.73;3.97;;;3.30;99.90;;;;;;5035356;28;20217;-78
2022/01/07 04:04:36;;;;;;;7.87;4.50;;;3.30;99.90;;;;;;5035263;28;20647;-79
2022/01/07 04:07:02;;;;;;;9.37;4.40;;;3.30;99.90;;;;;;5034730;28;20421;-78
2022/01/07 04:09:28;;;;;;;12.23;4.43;;;3.30;99.90;;;;;;5035318;28;20177;-79
2022/01/07 04:11:58;;;;;;;7.40;4.20;;;3.30;99.90;;;;;;5035181;28;20524;-79
2022/01/07 04:14:25;;;;;;;7.43;3.90;;;3.30;99.90;;;;;;5035732;28;20238;-77
2022/01/07 04:16:51;;;;;;;8.87;3.80;;;3.30;99.90;;;;;;5034803;28;20423;-78
2022/01/07 04:19:17;;;;;;;6.17;4.00;;;3.40;99.90;;;;;;5035311;28;20467;-79
2022/01/07 04:21:43;;;;;;;6.13;4.60;;;3.40;99.90;;;;;;5034966;28;20473;-78
2022/01/07 04:24:08;;;;;;;7.30;4.00;;;3.40;99.90;;;;;;5035162;28;20220;-78
2022/01/07 04:26:34;;;;;;;10.10;4.40;;;3.30;99.90;;;;;;5034288;28;20214;-78
2022/01/07 04:29:00;;;;;;;6.70;4.40;;;3.30;99.90;;;;;;5035158;28;20267;-78
2022/01/07 04:31:26;;;;;;;6.50;4.23;;;3.40;99.90;;;;;;5034416;28;20576;-78
2022/01/07 04:33:52;;;;;;;5.50;3.60;;;3.30;99.90;;;;;;5034953;28;20425;-77
2022/01/07 04:36:17;;;;;;;5.93;3.80;;;3.30;99.90;;;;;;5034294;28;20180;-78
2022/01/07 04:38:44;;;;;;;7.60;4.20;;;3.40;99.90;;;;;;5035626;28;20191;-78
2022/01/07 04:41:10;;;;;;;9.80;4.13;;;3.40;99.90;;;;;;5035104;28;20662;-78
2022/01/07 04:43:36;;;;;;;8.60;5.40;;;3.40;99.90;;;;;;5034461;28;20492;-78
2022/01/07 04:46:02;;;;;;;13.40;4.90;;;3.40;99.90;;;;;;5034465;28;20183;-79
2022/01/07 04:48:28;;;;;;;8.83;4.23;;;3.50;99.90;;;;;;5034594;28;20195;-79
2022/01/07 04:50:53;;;;;;;7.13;3.90;;;3.50;99.90;;;;;;5034716;28;20451;-79
2022/01/07 04:53:20;;;;;;;7.83;3.40;;;3.50;99.90;;;;;;5034086;28;20204;-78
2022/01/07 04:55:46;;;;;;;7.10;3.53;;;3.50;99.90;;;;;;5034443;28;20179;-79
2022/01/07 04:58:13;;;;;;;6.47;3.70;;;3.50;99.90;;;;;;5034542;28;20423;-79
2022/01/07 05:00:41;;;;;;;6.03;3.17;;;3.50;99.90;;;;;;5034639;28;20172;-78
2022/01/07 05:03:07;;;;;;;5.80;3.80;;;3.50;99.90;;;;;;5034282;28;20439;-79
2022/01/07 05:05:32;;;;;;;6.23;3.87;;;3.50;99.90;;;;;;5034061;28;20430;-79
2022/01/07 05:07:58;;;;;;;6.97;4.20;;;3.50;99.90;;;;;;5034076;28;20458;-78
2022/01/07 05:10:24;;;;;;;7.10;4.07;;;3.50;99.90;;;;;;5034757;28;20532;-79
2022/01/07 05:12:50;;;;;;;6.60;3.57;;;3.50;99.90;;;;;;5034660;28;20219;-79
2022/01/07 05:15:17;;;;;;;10.20;3.83;;;3.60;99.90;;;;;;5034196;28;20204;-79
2022/01/07 05:17:44;;;;;;;6.50;3.70;;;3.60;99.90;;;;;;5034394;28;20419;-79
2022/01/07 05:20:10;;;;;;;5.90;3.27;;;3.60;99.90;;;;;;5034344;28;20460;-79
2022/01/07 05:22:36;;;;;;;6.93;3.40;;;3.60;99.90;;;;;;5034349;28;20547;-79
2022/01/07 05:25:05;;;;;;;5.87;3.67;;;3.60;99.90;;;;;;5034060;28;20562;-78
2022/01/07 05:27:30;;;;;;;6.80;3.47;;;3.60;99.90;;;;;;5033932;28;20204;-79
2022/01/07 05:29:56;;;;;;;7.23;4.30;;;3.70;99.90;;;;;;5034350;28;20469;-78
2022/01/07 05:32:22;;;;;;;9.23;3.40;;;3.70;99.90;;;;;;5033520;28;20213;-79
2022/01/07 05:34:48;;;;;;;6.20;3.70;;;3.80;99.90;;;;;;5033442;28;20212;-78
2022/01/07 05:37:14;;;;;;;13.23;3.47;;;3.80;99.90;;;;;;5033773;28;20189;-78
2022/01/07 05:39:39;;;;;;;7.43;4.00;;;3.80;99.90;;;;;;5033662;28;20185;-78
2022/01/07 05:42:06;;;;;;;8.83;3.53;;;3.80;99.90;;;;;;5033357;28;20451;-78
2022/01/07 05:44:31;;;;;;;10.33;3.93;;;3.90;99.90;;;;;;5034706;28;20185;-78
2022/01/07 05:46:57;;;;;;;6.53;3.73;;;3.90;99.90;;;;;;5037284;28;20434;-78
2022/01/07 05:49:23;;;;;;;9.07;4.13;;;3.90;99.90;;;;;;5037464;28;20287;-78
2022/01/07 05:51:49;;;;;;;5.70;3.60;;;3.90;99.90;;;;;;5036896;28;21032;-79
2022/01/07 05:54:15;;;;;;;7.77;4.17;;;3.90;99.90;;;;;;5037297;28;20189;-79
2022/01/07 05:56:40;;;;;;;11.13;4.10;;;4.00;99.90;;;;;;5036869;28;20794;-78
2022/01/07 05:59:06;;;;;;;5.37;3.37;;;4.00;99.90;;;;;;5056469;28;20184;-78
2022/01/07 06:01:32;;;;;;;8.97;4.43;;;4.00;99.90;;;;;;5044533;28;20203;-78
2022/01/07 06:03:58;;;;;;;4.90;2.77;;;3.90;99.90;;;;;;5037563;28;20260;-78
2022/01/07 06:06:24;;;;;;;7.00;2.70;;;3.90;99.90;;;;;;5056972;28;20256;-77
2022/01/07 06:08:50;;;;;;;8.37;3.40;;;3.80;99.90;;;;;;5056869;28;20874;-79
2022/01/07 06:11:16;;;;;;;6.27;2.47;;;3.80;99.90;;;;;;5056279;28;20295;-78
2022/01/07 06:13:42;;;;;;;5.07;3.70;;;3.80;99.90;;;;;;5056674;28;20414;-78
2022/01/07 06:16:08;;;;;;;6.70;2.80;;;3.80;99.90;;;;;;5056644;28;20179;-79
2022/01/07 06:18:35;;;;;;;8.67;3.40;;;3.80;99.90;;;;;;5056829;28;20980;-79
2022/01/07 06:21:00;;;;;;;4.30;2.40;;;3.80;99.90;;;;;;5056930;28;20197;-78
2022/01/07 06:23:26;;;;;;;6.47;2.23;;;3.80;99.90;;;;;;5060266;28;20453;-78
2022/01/07 06:25:52;;;;;;;5.83;2.63;;;3.80;99.90;;;;;;5062834;28;20175;-79
2022/01/07 06:28:18;;;;;;;5.80;2.50;;;3.80;99.90;;;;;;5060459;28;20187;-79
2022/01/07 06:30:44;;;;;;;4.50;2.40;;;3.80;99.90;;;;;;5060755;28;20181;-79
2022/01/07 06:33:10;;;;;;;7.97;2.47;;;3.80;99.90;;;;;;5060785;28;20474;-78
2022/01/07 06:35:36;;;;;;;6.97;3.00;;;3.80;99.90;;;;;;5060270;28;20599;-79
2022/01/07 06:38:02;;;;;;;6.80;3.37;;;3.90;99.90;;;;;;5060619;28;20191;-78
2022/01/07 06:40:28;;;;;;;8.17;3.67;;;3.90;99.90;;;;;;5060325;28;20418;-78
2022/01/07 06:42:54;;;;;;;6.60;3.50;;;4.00;99.90;;;;;;5060559;28;20786;-78
2022/01/07 06:45:19;;;;;;;6.43;3.10;;;4.00;99.90;;;;;;5059869;28;20187;-78
2022/01/07 06:47:45;;;;;;;9.13;2.93;;;4.00;99.90;;;;;;5059140;28;20187;-78
2022/01/07 06:50:12;;;;;;;5.57;3.30;;;4.10;99.90;;;;;;5059552;28;20179;-78
2022/01/07 06:52:39;;;;;;;5.67;2.87;;;4.10;99.90;;;;;;5059800;28;20218;-79
2022/01/07 06:55:05;;;;;;;5.00;3.10;;;4.10;99.90;;;;;;5059696;28;20418;-77
2022/01/07 06:57:31;;;;;;;5.10;3.00;;;4.20;99.90;;;;;;5059069;28;20423;-78
2022/01/07 06:59:57;;;;;;;7.23;3.00;;;4.20;99.90;;;;;;5060016;28;20475;-79
2022/01/07 07:02:25;;;;;;;5.80;3.03;;;4.20;99.90;;;;;;5059098;28;20670;-79
2022/01/07 07:04:51;;;;;;;5.23;3.27;;;4.20;99.90;;;;;;5059545;28;20192;-79
2022/01/07 07:07:17;;;;;;;5.00;3.13;;;4.20;99.90;;;;;;5058014;28;20433;-78
2022/01/07 07:09:43;;;;;;;4.60;2.87;;;4.30;99.90;;;;;;5056668;28;20187;-80
2022/01/07 07:12:09;;;;;;;6.23;2.73;;;4.30;99.90;;;;;;5053430;28;20258;-79
2022/01/07 07:14:36;;;;;;;4.47;2.90;;;4.30;99.90;;;;;;5054161;28;20780;-80
2022/01/07 07:17:02;;;;;;;5.07;2.80;;;4.30;99.90;;;;;;5053093;28;20494;-77
2022/01/07 07:19:28;;;;;;;4.50;3.03;;;4.30;99.90;;;;;;5057789;28;20463;-79
2022/01/07 07:21:53;;;;;;;4.37;2.80;;;4.30;99.90;;;;;;5055778;28;20454;-79
2022/01/07 07:24:19;;;;;;;6.10;3.30;;;4.40;99.90;;;;;;5055984;28;20643;-79
2022/01/07 07:26:45;;;;;;;5.87;2.70;;;4.40;99.90;;;;;;5055970;28;20664;-79
2022/01/07 07:29:10;;;;;;;4.70;3.07;;;4.40;99.90;;;;;;5054785;28;20184;-78
2022/01/07 07:31:43;;;;;;;4.97;3.47;;;4.50;99.90;;;;;;5054768;28;20686;-78
2022/01/07 07:36:54;;;;;;;5.43;3.23;;;4.50;99.90;;;;;;5045822;28;20420;-78
2022/01/07 07:39:20;;;;;;;5.33;2.87;;;4.50;99.90;;;;;;5055393;28;20517;-78
2022/01/07 07:41:46;;;;;;;5.03;3.30;;;4.50;99.90;;;;;;5055659;28;20683;-78
2022/01/07 07:44:12;;;;;;;5.30;3.10;;;4.50;99.90;;;;;;5053899;28;20641;-77
2022/01/07 07:46:40;;;;;;;5.30;3.20;;;4.50;99.90;;;;;;5054004;28;20419;-78
2022/01/07 07:49:07;;;;;;;6.47;3.20;;;4.50;99.90;;;;;;5052490;28;20187;-78
2022/01/07 07:51:33;;;;;;;4.17;3.07;;;4.60;99.90;;;;;;5051996;28;20470;-77
2022/01/07 07:53:59;;;;;;;8.33;2.40;;;4.70;99.90;;;;;;5052076;28;20410;-77
2022/01/07 07:56:26;;;;;;;3.50;1.73;;;4.70;99.90;;;;;;5052942;28;21010;-78
2022/01/07 07:58:53;;;;;;;2.97;1.67;;;4.70;99.90;;;;;;5052487;28;20414;-78
2022/01/07 08:01:19;;;;;;;5.60;1.80;;;4.70;99.90;;;;;;5052979;28;20422;-78
2022/01/07 08:03:46;;;;;;;3.47;1.70;;;4.70;99.90;;;;;;5052649;28;20514;-78
2022/01/07 08:06:12;;;;;;;3.00;1.43;;;4.80;99.90;;;;;;5052893;28;20870;-77
2022/01/07 08:08:38;;;;;;;4.87;1.80;;;4.80;99.90;;;;;;5052690;28;20920;-78
2022/01/07 08:11:07;;;;;;;3.60;1.90;;;4.80;99.90;;;;;;5052576;28;20485;-77
2022/01/07 08:16:19;;;;;;;3.50;2.17;;;5.00;99.90;;;;;;5054637;28;20486;-78
2022/01/07 08:18:53;;;;;;;4.33;2.40;;;5.00;99.90;;;;;;5053378;28;20421;-78
2022/01/07 08:21:20;;;;;;;4.63;2.10;;;5.00;99.90;;;;;;5054125;28;20420;-78
2022/01/07 08:23:46;;;;;;;8.83;3.37;;;5.10;99.90;;;;;;5053115;28;20490;-78
2022/01/07 08:26:15;;;;;;;3.80;1.90;;;5.10;99.90;;;;;;5053813;28;20429;-78
2022/01/07 08:28:46;;;;;;;4.00;2.40;;;5.20;99.90;;;;;;5052986;28;20419;-77
2022/01/07 08:36:28;;;;;;;5.10;2.50;;;5.30;99.90;;;;;;5055528;28;20456;-77
2022/01/07 08:38:55;;;;;;;4.30;2.20;;;5.30;99.90;;;;;;5052602;28;20505;-78
2022/01/07 08:41:30;;;;;;;4.40;2.00;;;5.40;99.90;;;;;;5052466;28;20424;-77
2022/01/07 08:43:56;;;;;;;3.73;1.80;;;5.40;99.90;;;;;;5052432;28;20422;-78
2022/01/07 08:46:22;;;;;;;4.70;2.20;;;5.40;99.90;;;;;;5052679;28;20483;-78
2022/01/07 08:48:48;;;;;;;2.80;1.53;;;5.30;99.90;;;;;;5053117;28;20463;-78
2022/01/07 08:51:13;;;;;;;4.80;3.10;;;5.20;99.90;;;;;;5059536;23;21035;-84
2022/01/07 08:53:39;;;;;;;4.70;1.70;;;5.30;99.90;;;;;;5012073;28;20577;-84
2022/01/07 08:56:07;;;;;;;4.73;2.10;;;5.40;99.90;;;;;;5010838;28;20276;-84
2022/01/07 08:58:32;;;;;;;4.57;1.90;;;5.40;99.90;;;;;;5010701;28;20412;-85
2022/01/07 09:00:58;;;;;;;3.87;1.70;;;5.50;99.90;;;;;;5010647;28;20439;-84
2022/01/07 09:03:24;;;;;;;2.50;1.53;;;5.50;99.90;;;;;;5010597;28;20198;-84
2022/01/07 09:05:50;;;;;;;3.47;1.70;;;5.60;99.90;;;;;;5010799;28;20676;-85
2022/01/07 09:08:16;;;;;;;3.80;2.20;;;5.60;99.90;;;;;;5010626;28;20411;-84
2022/01/07 09:10:42;;;;;;;3.57;2.30;;;5.70;99.90;;;;;;5010539;28;20188;-84
2022/01/07 09:13:09;;;;;;;3.30;1.60;;;5.70;99.90;;;;;;5011833;28;20473;-86
2022/01/07 09:15:35;;;;;;;3.73;2.13;;;5.60;99.90;;;;;;5010267;28;20474;-84
2022/01/07 09:18:11;;;;;;;4.37;2.10;;;5.70;99.90;;;;;;5010477;28;20781;-86
2022/01/07 09:20:38;;;;;;;4.63;2.10;;;5.80;99.90;;;;;;5013357;28;20509;-88
2022/01/07 09:23:12;;;;;;;5.40;2.73;;;5.80;99.90;;;;;;5016591;28;20441;-88
2022/01/07 09:28:46;;;;;;;3.30;1.67;;;5.80;99.90;;;;;;5022697;28;20468;-87
2022/01/07 09:31:17;;;;;;;3.37;1.73;;;5.90;99.90;;;;;;5034502;28;20980;-87
2022/01/07 09:33:48;;;;;;;3.07;1.20;;;5.90;99.90;;;;;;5017943;28;20807;-87
2022/01/07 09:36:35;;;;;;;3.40;1.67;;;5.80;99.90;;;;;;5017345;28;20850;-87
2022/01/07 09:39:00;;;;;;;3.87;1.73;;;5.80;99.90;;;;;;5017492;28;20509;-87
2022/01/07 09:41:34;;;;;;;2.80;1.47;;;5.90;99.90;;;;;;5033751;28;20536;-87
2022/01/07 09:44:02;;;;;;;4.30;1.87;;;5.80;99.90;;;;;;5016975;28;20190;-87
2022/01/07 09:50:10;;;;;;;3.00;1.70;;;5.70;99.90;;;;;;4973545;28;20507;-87
2022/01/07 09:52:39;;;;;;;3.80;2.07;;;5.70;99.90;;;;;;5004400;28;20481;-88
2022/01/07 09:55:06;;;;;;;8.23;2.10;;;5.70;99.90;;;;;;5017107;28;20465;-84
2022/01/07 09:57:31;;;;;;;2.40;1.13;;;5.70;99.90;;;;;;5016711;28;20417;-86
2022/01/07 09:59:57;;;;;;;4.37;2.13;;;5.70;99.90;;;;;;5033339;28;20427;-86
2022/01/07 10:02:23;;;;;;;2.60;1.50;;;5.70;99.90;;;;;;5016553;28;20206;-86
2022/01/07 10:04:51;;;;;;;3.20;1.60;;;5.70;99.90;;;;;;5016578;28;20184;-86
2022/01/07 10:07:22;;;;;;;2.80;1.50;;;5.80;99.90;;;;;;5016715;28;20562;-86
2022/01/07 10:10:14;;;;;;;3.73;1.63;;;5.80;99.90;;;;;;5016677;28;20438;-85
2022/01/07 10:12:56;;;;;;;2.90;1.60;;;5.90;99.90;;;;;;5041680;23;20603;-78
2022/01/07 10:15:24;;;;;;;2.93;1.67;;;6.10;99.90;;;;;;5037400;28;20481;-77
2022/01/07 10:18:10;;;;;;;3.37;1.67;;;6.20;99.90;;;;;;5038546;28;20409;-78
2022/01/07 10:20:40;;;;;;;2.93;1.40;;;6.30;99.90;;;;;;5039416;28;20505;-79
2022/01/07 10:23:24;;;;;;;2.93;1.33;;;6.50;99.90;;;;;;5037984;28;20424;-79
2022/01/07 10:25:54;;;;;;;2.50;1.30;;;6.60;99.90;;;;;;5038525;28;20422;-79
2022/01/07 10:28:27;;;;;;;3.67;1.70;;;6.60;99.90;;;;;;5038439;28;20410;-79
2022/01/07 10:30:54;;;;;;;3.50;1.93;;;6.50;99.90;;;;;;5037573;28;20410;-79
2022/01/07 10:33:23;;;;;;;2.70;1.33;;;6.50;99.90;;;;;;5038218;28;20651;-79
2022/01/07 10:35:56;;;;;;;3.57;1.70;;;6.50;99.90;;;;;;5046083;28;20438;-79
2022/01/07 10:38:27;;;;;;;3.17;1.43;;;6.50;99.90;;;;;;5072859;28;20919;-79
2022/01/07 10:40:56;;;;;;;2.80;1.23;;;6.50;99.90;;;;;;5073950;28;20411;-79
2022/01/07 10:43:36;;;;;;;2.80;1.60;;;6.60;99.90;;;;;;5074145;28;20479;-79
2022/01/07 10:46:11;;;;;;;4.30;1.90;;;6.60;99.90;;;;;;5074089;28;20409;-79
2022/01/07 10:48:40;;;;;;;3.10;1.50;;;6.60;99.90;;;;;;5057134;28;20943;-81
2022/01/07 10:51:11;;;;;;;3.47;1.53;;;6.70;99.90;;;;;;5073648;28;20424;-79
2022/01/07 10:53:38;;;;;;;3.00;1.63;;;6.70;99.90;;;;;;5072840;28;20424;-79
2022/01/07 10:56:05;;;;;;;2.63;1.20;;;7.00;99.90;;;;;;5073073;28;20783;-80
2022/01/07 10:58:57;;;;;;;4.20;1.50;;;7.30;99.90;;;;;;5057098;28;20932;-79
2022/01/07 11:01:27;;;;;;;2.80;1.13;;;7.30;99.90;;;;;;5073245;28;20512;-79
2022/01/07 11:03:58;;;;;;;2.60;1.30;;;7.50;99.90;;;;;;5056754;28;20413;-77
2022/01/07 11:06:25;;;;;;;2.30;1.10;;;7.70;99.90;;;;;;5072465;28;20421;-78
2022/01/07 11:08:55;;;;;;;2.20;0.97;;;7.70;99.90;;;;;;5073177;28;20421;-79
2022/01/07 11:11:22;;;;;;;2.50;1.33;;;7.70;99.90;;;;;;5055642;28;20552;-79
2022/01/07 11:13:49;;;;;;;2.20;1.20;;;7.70;99.90;;;;;;5072724;28;20465;-79
2022/01/07 11:16:15;;;;;;;3.13;2.50;;;8.20;99.90;;;;;;5072754;28;20809;-79
2022/01/07 11:18:43;;;;;;;3.33;1.30;;;8.40;99.90;;;;;;5072359;28;20512;-80
2022/01/07 11:21:10;;;;;;;3.27;1.40;;;8.50;99.90;;;;;;5036963;28;20438;-80
2022/01/07 11:23:38;;;;;;;2.70;1.37;;;8.50;99.90;;;;;;5016170;28;20415;-79
2022/01/07 11:26:12;;;;;;;2.40;1.20;;;9.50;99.90;;;;;;5028223;28;20849;-79
2022/01/07 11:29:00;;;;;;;2.60;1.20;;;9.80;99.90;;;;;;5055325;28;20448;-79
2022/01/07 11:31:27;;;;;;;4.20;1.20;;;10.20;99.90;;;;;;5042063;28;20523;-79
2022/01/07 11:34:23;;;;;;;2.63;1.27;;;10.60;99.90;;;;;;5071711;28;20923;-79
2022/01/07 11:36:49;;;;;;;3.73;1.50;;;10.50;99.90;;;;;;5055456;28;20424;-80
2022/01/07 11:39:15;;;;;;;3.60;1.60;;;10.30;99.90;;;;;;5071538;28;20417;-79
2022/01/07 11:41:50;;;;;;;2.50;1.33;;;10.00;99.90;;;;;;5071182;28;20531;-79
2022/01/07 11:44:26;;;;;;;3.50;1.53;;;9.50;99.90;;;;;;5071866;28;20873;-79
2022/01/07 11:47:12;;;;;;;3.07;1.50;;;9.10;99.90;;;;;;5071715;28;20554;-79
2022/01/07 11:49:38;;;;;;;4.50;1.60;;;8.60;99.90;;;;;;5054723;28;20431;-79
2022/01/07 11:52:30;;;;;;;3.60;1.37;;;8.40;99.90;;;;;;5071148;28;20836;-79
2022/01/07 11:55:19;;;;;;;4.00;1.77;;;8.10;99.90;;;;;;5071416;28;20410;-79
2022/01/07 11:57:51;;;;;;;4.13;1.60;;;7.90;99.90;;;;;;5054988;28;20491;-79
2022/01/07 12:00:50;;;;;;;3.60;2.13;;;7.60;99.90;;;;;;5071303;28;20417;-79
2022/01/07 12:03:41;;;;;;;4.83;1.77;;;7.50;99.90;;;;;;5054583;28;20551;-79
2022/01/07 12:06:30;;;;;;;3.50;1.50;;;7.20;99.90;;;;;;5054815;28;20520;-79
2022/01/07 12:09:06;;;;;;;3.47;1.60;;;7.20;99.90;;;;;;5046913;28;20903;-79
2022/01/07 12:11:33;;;;;;;3.57;1.80;;;7.20;99.90;;;;;;5054407;28;20481;-79
2022/01/07 12:14:00;;;;;;;4.17;1.93;;;7.20;99.90;;;;;;5054388;28;20992;-79
2022/01/07 12:16:32;;;;;;;3.80;1.83;;;7.20;99.90;;;;;;5071110;28;20409;-79
2022/01/07 12:19:16;;;;;;;9.70;2.33;;;7.20;99.90;;;;;;5070956;28;20425;-79
2022/01/07 12:21:47;;;;;;;3.70;2.20;;;7.20;99.90;;;;;;5054451;28;20465;-79
2022/01/07 12:24:33;;;;;;;3.10;1.57;;;7.10;99.90;;;;;;5054560;28;20459;-79
2022/01/07 12:27:07;;;;;;;4.90;1.73;;;7.20;99.90;;;;;;5054391;28;20908;-79
2022/01/07 12:29:35;;;;;;;2.97;1.73;;;7.10;99.90;;;;;;5054392;28;20507;-79
2022/01/07 12:32:04;;;;;;;4.63;2.20;;;7.20;99.90;;;;;;5070861;28;20463;-79
2022/01/07 12:34:33;;;;;;;3.63;1.83;;;7.30;99.90;;;;;;5070782;28;20413;-79
2022/01/07 12:37:31;;;;;;;8.70;2.67;;;7.30;99.90;;;;;;5073472;28;20629;-79
2022/01/07 12:39:59;;;;;;;4.30;2.00;;;7.20;99.90;;;;;;5055522;28;20810;-79
2022/01/07 12:42:28;;;;;;;3.73;2.17;;;7.30;99.90;;;;;;5074637;28;20437;-80
2022/01/07 12:44:57;;;;;;;4.90;2.70;;;7.60;99.90;;;;;;5057915;28;20418;-80
2022/01/07 12:47:27;;;;;;;4.47;2.43;;;7.60;99.90;;;;;;5074809;28;20795;-80
2022/01/07 12:49:57;;;;;;;3.87;2.20;;;7.50;99.90;;;;;;5074148;28;20793;-80
2022/01/07 12:52:27;;;;;;;5.00;2.20;;;7.50;99.90;;;;;;5074222;28;21085;-79
2022/01/07 12:55:02;;;;;;;3.90;2.60;;;7.50;99.90;;;;;;5077993;28;20997;-79
2022/01/07 12:57:30;;;;;;;10.93;2.50;;;7.40;99.90;;;;;;5077454;28;20459;-80
2022/01/07 13:00:16;;;;;;;4.30;2.40;;;7.30;99.90;;;;;;5061238;28;20510;-79
2022/01/07 13:02:50;;;;;;;3.70;2.40;;;7.30;99.90;;;;;;5060426;28;20432;-79
2022/01/07 13:05:19;;;;;;;4.30;2.73;;;7.30;99.90;;;;;;5077104;28;20515;-80
2022/01/07 13:07:47;;;;;;;10.37;3.10;;;7.30;99.90;;;;;;5060042;28;20448;-79
2022/01/07 13:10:20;;;;;;;5.70;2.90;;;7.30;99.90;;;;;;5077273;28;20425;-80
2022/01/07 13:12:56;;;;;;;5.53;3.10;;;7.20;99.90;;;;;;5063461;28;20469;-80
2022/01/07 13:15:40;;;;;;;6.10;2.70;;;7.10;99.90;;;;;;5062371;28;20424;-80
2022/01/07 13:18:26;;;;;;;7.70;2.43;;;7.10;99.90;;;;;;5079465;28;20786;-80